createdAt,value
2018-12-05T00:02:21.558Z,5.53
2018-12-05T00:04:50.592Z,7.60
2018-12-05T00:07:24.388Z,5.45
2018-12-05T00:09:59.395Z,17.52
2018-12-05T00:12:37.849Z,12.65
2018-12-05T00:18:25.310Z,12.28
2018-12-05T00:21:05.771Z,12.93
2018-12-05T00:23:46.420Z,8.05
2018-12-05T00:26:20.993Z,12.90
2018-12-05T00:29:08.472Z,15.90
2018-12-05T00:31:47.480Z,11.33
2018-12-05T00:34:22.095Z,14.63
2018-12-05T00:37:07.170Z,13.55
2018-12-05T00:39:45.276Z,17.50
2018-12-05T00:45:15.667Z,21.93
2018-12-05T00:50:42.255Z,11.43
2018-12-05T00:53:16.860Z,11.40
2018-12-05T00:55:51.627Z,18.65
2018-12-05T01:04:21.200Z,21.10
2018-12-05T01:09:50.238Z,9.53
2018-12-05T01:12:18.769Z,14.95
2018-12-05T01:15:00.541Z,15.75
2018-12-05T01:17:30.313Z,14.15
2018-12-05T01:20:14.567Z,15.93
2018-12-05T01:22:43.031Z,28.07
2018-12-05T01:25:11.475Z,14.23
2018-12-05T01:27:56.600Z,23.65
2018-12-05T01:30:25.128Z,9.95
2018-12-05T01:32:53.536Z,15.83
2018-12-05T01:35:22.014Z,23.20
2018-12-05T01:40:55.464Z,21.75
2018-12-05T01:43:28.078Z,13.90
2018-12-05T01:45:56.521Z,26.48
2018-12-05T01:48:24.904Z,29.92
2018-12-05T01:50:53.443Z,14.85
2018-12-05T01:53:22.152Z,16.20
2018-12-05T01:55:50.660Z,12.47
2018-12-05T01:58:19.005Z,16.55
2018-12-05T02:00:48.691Z,19.02
2018-12-05T02:03:16.951Z,20.02
2018-12-05T02:05:45.261Z,11.85
2018-12-05T02:08:13.570Z,12.78
2018-12-05T02:10:41.948Z,20.15
2018-12-05T02:13:10.222Z,21.07
2018-12-05T02:15:38.468Z,12.70
2018-12-05T02:18:06.730Z,19.82
2018-12-05T02:20:35.032Z,21.70
2018-12-05T02:23:03.340Z,18.25
2018-12-05T02:25:31.650Z,22.75
2018-12-05T02:27:59.994Z,19.82
2018-12-05T02:30:28.251Z,15.25
2018-12-05T02:32:56.515Z,13.00
2018-12-05T02:35:24.763Z,19.37
2018-12-05T02:37:53.090Z,18.60
2018-12-05T02:40:22.382Z,20.27
2018-12-05T02:42:50.648Z,21.50
2018-12-05T02:45:18.897Z,14.95
2018-12-05T02:47:47.150Z,14.98
2018-12-05T02:50:15.413Z,12.23
2018-12-05T02:52:43.649Z,20.02
2018-12-05T02:55:12.156Z,22.50
2018-12-05T02:57:40.574Z,24.35
2018-12-05T03:00:08.967Z,17.60
2018-12-05T03:02:37.182Z,17.55
2018-12-05T03:05:07.862Z,23.73
2018-12-05T03:07:36.206Z,20.92
2018-12-05T03:10:05.110Z,18.23
2018-12-05T03:12:33.319Z,20.90
2018-12-05T03:15:01.668Z,15.43
2018-12-05T03:17:30.046Z,16.55
2018-12-05T03:19:58.322Z,14.65
2018-12-05T03:22:26.627Z,15.13
2018-12-05T03:24:54.872Z,14.20
2018-12-05T03:27:23.150Z,12.78
2018-12-05T03:29:51.404Z,14.07
2018-12-05T03:32:19.714Z,17.15
2018-12-05T03:34:48.220Z,16.42
2018-12-05T03:37:16.385Z,13.72
2018-12-05T03:39:44.655Z,17.95
2018-12-05T03:42:13.019Z,18.77
2018-12-05T03:44:41.271Z,16.37
2018-12-05T03:47:09.470Z,20.02
2018-12-05T03:49:37.644Z,17.48
2018-12-05T03:52:05.942Z,25.20
2018-12-05T03:54:34.804Z,14.35
2018-12-05T03:57:03.017Z,13.58
2018-12-05T03:59:31.262Z,16.30
2018-12-05T04:01:59.543Z,23.95
2018-12-05T04:04:27.848Z,19.07
2018-12-05T04:06:56.303Z,24.23
2018-12-05T04:09:24.439Z,15.68
2018-12-05T04:11:52.962Z,20.72
2018-12-05T04:14:21.287Z,12.43
2018-12-05T04:16:49.431Z,14.65
2018-12-05T04:19:17.822Z,14.20
2018-12-05T04:21:46.160Z,14.58
2018-12-05T04:24:14.420Z,16.15
2018-12-05T04:26:42.579Z,20.60
2018-12-05T04:29:10.842Z,15.83
2018-12-05T04:31:39.027Z,16.05
2018-12-05T04:34:07.318Z,14.73
2018-12-05T04:36:35.501Z,18.77
2018-12-05T04:39:05.900Z,16.15
2018-12-05T04:41:34.231Z,16.48
2018-12-05T04:44:02.530Z,15.20
2018-12-05T04:46:30.946Z,24.65
2018-12-05T04:48:59.343Z,20.30
2018-12-05T04:51:27.614Z,19.23
2018-12-05T04:53:55.882Z,18.75
2018-12-05T04:56:24.007Z,17.35
2018-12-05T04:58:52.746Z,25.85
2018-12-05T05:01:20.931Z,16.73
2018-12-05T05:03:49.216Z,21.02
2018-12-05T05:06:17.367Z,19.27
2018-12-05T05:08:45.543Z,23.12
2018-12-05T05:11:13.821Z,20.02
2018-12-05T05:13:42.160Z,18.25
2018-12-05T05:16:10.424Z,26.95
2018-12-05T05:18:38.742Z,16.30
2018-12-05T05:21:07.075Z,17.98
2018-12-05T05:23:35.216Z,21.75
2018-12-05T05:26:03.656Z,23.15
2018-12-05T05:28:32.054Z,21.57
2018-12-05T05:31:00.623Z,18.92
2018-12-05T05:33:29.160Z,21.40
2018-12-05T05:35:57.440Z,28.73
2018-12-05T05:38:25.688Z,27.65
2018-12-05T05:40:54.133Z,18.17
2018-12-05T05:43:22.445Z,24.37
2018-12-05T05:45:50.798Z,30.25
2018-12-05T05:48:19.006Z,29.57
2018-12-05T05:50:47.468Z,28.60
2018-12-05T05:53:15.654Z,21.55
2018-12-05T05:55:44.002Z,18.45
2018-12-05T05:58:12.867Z,28.73
2018-12-05T06:00:41.241Z,28.85
2018-12-05T06:03:09.975Z,28.45
2018-12-05T06:05:38.266Z,28.70
2018-12-05T06:08:06.522Z,29.00
2018-12-05T06:10:39.178Z,20.57
2018-12-05T06:13:07.878Z,26.40
2018-12-05T06:15:36.343Z,19.92
2018-12-05T06:18:05.294Z,22.17
2018-12-05T06:20:43.025Z,25.95
2018-12-05T06:23:14.755Z,20.85
2018-12-05T06:25:53.299Z,24.98
2018-12-05T06:28:25.545Z,23.85
2018-12-05T06:30:59.904Z,25.37
2018-12-05T06:33:28.087Z,21.87
2018-12-05T06:35:56.505Z,17.73
2018-12-05T06:38:24.727Z,28.27
2018-12-05T06:40:52.983Z,21.45
2018-12-05T06:43:21.410Z,23.77
2018-12-05T06:45:49.712Z,18.17
2018-12-05T06:48:17.938Z,22.60
2018-12-05T06:50:52.369Z,23.42
2018-12-05T06:53:20.775Z,27.07
2018-12-05T06:55:49.018Z,21.70
2018-12-05T06:58:17.222Z,22.10
2018-12-05T07:00:45.391Z,21.73
2018-12-05T07:03:13.747Z,21.45
2018-12-05T07:05:41.992Z,31.48
2018-12-05T07:08:10.099Z,20.95
2018-12-05T07:10:38.283Z,20.27
2018-12-05T07:13:06.595Z,20.23
2018-12-05T07:15:34.823Z,22.20
2018-12-05T07:18:03.112Z,26.05
2018-12-05T07:20:31.583Z,24.30
2018-12-05T07:22:59.850Z,27.42
2018-12-05T07:25:28.109Z,20.23
2018-12-05T07:27:56.250Z,22.73
2018-12-05T07:30:29.463Z,21.68
2018-12-05T07:32:54.737Z,22.10
2018-12-05T07:35:23.059Z,20.90
2018-12-05T07:37:51.218Z,24.95
2018-12-05T07:40:19.376Z,22.10
2018-12-05T07:42:47.794Z,19.20
2018-12-05T07:45:15.962Z,26.73
2018-12-05T07:47:44.150Z,29.15
2018-12-05T07:50:12.314Z,24.43
2018-12-05T07:52:40.459Z,23.87
2018-12-05T07:55:08.747Z,18.12
2018-12-05T07:57:37.867Z,27.15
2018-12-05T08:00:06.750Z,26.40
2018-12-05T08:02:35.043Z,33.25
2018-12-05T08:05:03.390Z,23.98
2018-12-05T08:07:31.663Z,27.58
2018-12-05T08:12:38.890Z,19.82
2018-12-05T08:15:08.188Z,23.38
2018-12-05T08:17:36.330Z,24.90
2018-12-05T08:20:05.108Z,28.00
2018-12-05T08:22:33.566Z,27.70
2018-12-05T08:25:01.827Z,25.35
2018-12-05T08:27:30.168Z,24.47
2018-12-05T08:29:58.372Z,28.57
2018-12-05T08:32:26.574Z,29.75
2018-12-05T08:34:54.837Z,28.15
2018-12-05T08:37:23.087Z,26.27
2018-12-05T08:39:51.433Z,28.73
2018-12-05T08:42:19.571Z,28.75
2018-12-05T08:44:47.766Z,32.70
2018-12-05T08:47:16.022Z,24.72
2018-12-05T08:49:44.239Z,27.37
2018-12-05T08:52:12.589Z,28.47
2018-12-05T08:54:41.756Z,41.20
2018-12-05T08:57:10.195Z,29.40
2018-12-05T08:59:38.352Z,26.57
2018-12-05T09:02:06.652Z,44.25
2018-12-05T09:04:34.853Z,37.75
2018-12-05T09:07:03.156Z,33.10
2018-12-05T09:09:31.346Z,38.05
2018-12-05T09:12:00.113Z,34.65
2018-12-05T09:14:28.949Z,47.25
2018-12-05T09:16:57.416Z,42.55
2018-12-05T09:19:25.631Z,44.90
2018-12-05T09:21:53.813Z,42.98
2018-12-05T09:24:22.085Z,38.60
2018-12-05T09:26:50.436Z,40.43
2018-12-05T09:29:18.631Z,36.85
2018-12-05T09:31:46.803Z,46.02
2018-12-05T09:34:15.110Z,40.28
2018-12-05T09:36:43.380Z,41.45
2018-12-05T09:39:11.583Z,43.48
2018-12-05T09:41:39.904Z,44.80
2018-12-05T09:44:08.277Z,49.45
2018-12-05T09:46:36.575Z,48.58
2018-12-05T09:49:04.916Z,56.28
2018-12-05T09:51:33.390Z,55.92
2018-12-05T09:54:01.649Z,51.60
2018-12-05T09:56:30.257Z,48.00
2018-12-05T09:59:05.175Z,42.70
2018-12-05T10:01:33.409Z,41.90
2018-12-05T10:04:01.750Z,42.33
2018-12-05T10:06:29.924Z,47.93
2018-12-05T10:08:58.065Z,44.65
2018-12-05T10:11:26.771Z,44.88
2018-12-05T10:13:55.280Z,48.65
2018-12-05T10:16:23.551Z,43.23
2018-12-05T10:18:52.075Z,56.80
2018-12-05T10:21:20.550Z,44.70
2018-12-05T10:23:55.903Z,44.23
2018-12-05T10:26:24.286Z,69.37
2018-12-05T10:28:52.770Z,51.50
2018-12-05T10:31:21.086Z,49.80
2018-12-05T10:33:49.653Z,45.35
2018-12-05T10:36:18.294Z,49.65
2018-12-05T10:38:46.747Z,47.50
2018-12-05T10:41:15.917Z,51.45
2018-12-05T10:43:44.936Z,37.65
2018-12-05T10:46:13.894Z,53.05
2018-12-05T10:48:42.290Z,42.90
2018-12-05T10:51:10.957Z,46.28
2018-12-05T10:53:39.366Z,48.65
2018-12-05T10:56:09.013Z,64.85
2018-12-05T10:58:37.899Z,39.92
2018-12-05T11:01:11.422Z,44.65
2018-12-05T11:03:39.923Z,43.68
2018-12-05T11:06:13.696Z,41.77
2018-12-05T11:08:47.297Z,45.60
2018-12-05T11:11:20.865Z,38.10
2018-12-05T11:13:54.987Z,40.35
2018-12-05T11:16:28.759Z,40.45
2018-12-05T11:19:02.579Z,48.33
2018-12-05T11:21:36.239Z,41.25
2018-12-05T11:24:21.626Z,41.95
2018-12-05T11:26:50.102Z,42.15
2018-12-05T11:29:18.661Z,35.35
2018-12-05T11:31:47.164Z,43.73
2018-12-05T11:34:15.621Z,33.13
2018-12-05T11:36:43.915Z,35.70
2018-12-05T11:39:12.075Z,33.70
2018-12-05T11:41:40.514Z,30.50
2018-12-05T11:44:08.900Z,33.18
2018-12-05T11:46:37.343Z,31.30
2018-12-05T11:49:06.125Z,26.77
2018-12-05T11:51:34.548Z,40.95
2018-12-05T11:54:03.853Z,26.87
2018-12-05T11:56:32.462Z,35.10
2018-12-05T11:59:00.990Z,27.80
2018-12-05T12:01:29.358Z,32.00
2018-12-05T12:03:58.067Z,23.22
2018-12-05T12:06:26.352Z,32.63
2018-12-05T12:08:54.870Z,29.95
2018-12-05T12:11:23.421Z,27.13
2018-12-05T12:13:51.980Z,28.50
2018-12-05T12:16:20.509Z,30.50
2018-12-05T12:18:48.988Z,29.27
2018-12-05T12:21:17.486Z,34.55
2018-12-05T12:23:46.284Z,33.48
2018-12-05T12:26:14.826Z,22.55
2018-12-05T12:28:43.108Z,23.27
2018-12-05T12:31:11.524Z,25.32
2018-12-05T12:33:39.842Z,33.75
2018-12-05T12:36:08.115Z,30.50
2018-12-05T12:38:36.305Z,26.35
2018-12-05T12:41:04.549Z,29.27
2018-12-05T12:43:32.677Z,28.75
2018-12-05T12:46:00.815Z,32.03
2018-12-05T12:48:29.123Z,20.82
2018-12-05T12:50:57.359Z,26.02
2018-12-05T12:53:48.760Z,18.70
2018-12-05T12:56:16.894Z,29.05
2018-12-05T12:58:45.119Z,19.70
2018-12-05T13:01:13.291Z,27.30
2018-12-05T13:03:41.575Z,23.18
2018-12-05T13:06:09.894Z,25.82
2018-12-05T13:08:38.162Z,21.23
2018-12-05T13:11:06.284Z,17.23
2018-12-05T13:13:34.474Z,17.87
2018-12-05T13:16:02.606Z,24.52
2018-12-05T13:18:30.775Z,19.25
2018-12-05T13:20:58.943Z,21.85
2018-12-05T13:23:27.110Z,21.57
2018-12-05T13:25:55.239Z,19.95
2018-12-05T13:28:23.503Z,26.82
2018-12-05T13:30:51.674Z,22.67
2018-12-05T13:33:19.919Z,18.35
2018-12-05T13:35:48.283Z,23.80
2018-12-05T13:38:16.633Z,20.08
2018-12-05T13:40:44.921Z,14.73
2018-12-05T13:43:13.207Z,17.20
2018-12-05T13:45:44.897Z,18.23
2018-12-05T13:48:13.159Z,15.80
2018-12-05T13:50:41.477Z,31.02
2018-12-05T13:53:09.826Z,23.80
2018-12-05T13:55:38.058Z,21.48
2018-12-05T13:58:06.392Z,22.37
2018-12-05T14:00:34.593Z,24.90
2018-12-05T14:03:02.919Z,22.15
2018-12-05T14:05:31.087Z,16.60
2018-12-05T14:07:59.324Z,22.37
2018-12-05T14:10:27.817Z,24.25
2018-12-05T14:12:59.109Z,25.23
2018-12-05T14:15:27.850Z,19.75
2018-12-05T14:18:01.290Z,24.95
2018-12-05T14:20:26.958Z,19.82
2018-12-05T14:22:56.156Z,23.18
2018-12-05T14:25:24.676Z,23.55
2018-12-05T14:27:53.229Z,21.87
2018-12-05T14:30:21.746Z,28.77
2018-12-05T14:32:50.702Z,26.82
2018-12-05T14:35:19.085Z,26.48
2018-12-05T14:37:53.545Z,24.43
2018-12-05T14:40:22.579Z,20.77
2018-12-05T14:42:50.719Z,17.32
2018-12-05T14:45:19.389Z,19.48
2018-12-05T14:47:47.634Z,21.95
2018-12-05T14:50:15.911Z,26.77
2018-12-05T14:52:44.103Z,18.67
2018-12-05T14:55:12.461Z,23.40
2018-12-05T14:57:40.696Z,23.83
2018-12-05T15:00:09.284Z,19.10
2018-12-05T15:02:37.566Z,27.95
2018-12-05T15:05:05.943Z,23.12
2018-12-05T15:07:34.349Z,22.22
2018-12-05T15:10:02.720Z,23.50
2018-12-05T15:12:30.991Z,24.40
2018-12-05T15:14:59.411Z,26.55
2018-12-05T15:17:27.598Z,25.32
2018-12-05T15:19:55.907Z,27.90
2018-12-05T15:22:24.199Z,19.77
2018-12-05T15:24:53.082Z,14.03
2018-12-05T15:27:32.645Z,30.70
2018-12-05T15:30:01.085Z,31.60
2018-12-05T15:32:29.908Z,21.07
2018-12-05T15:34:58.361Z,21.02
2018-12-05T15:37:26.651Z,25.70
2018-12-05T15:39:55.048Z,22.22
2018-12-05T15:42:23.371Z,22.70
2018-12-05T15:44:51.646Z,26.80
2018-12-05T15:47:19.998Z,16.42
2018-12-05T15:49:48.312Z,27.52
2018-12-05T15:52:16.592Z,18.92
2018-12-05T15:54:45.049Z,19.10
2018-12-05T15:57:13.392Z,18.80
2018-12-05T15:59:41.687Z,22.02
2018-12-05T16:02:10.011Z,22.40
2018-12-05T16:04:38.405Z,15.63
2018-12-05T16:07:19.214Z,22.52
2018-12-05T16:09:47.650Z,22.13
2018-12-05T16:12:15.966Z,27.77
2018-12-05T16:14:44.287Z,18.75
2018-12-05T16:17:12.554Z,23.95
2018-12-05T16:19:40.804Z,22.35
2018-12-05T16:22:09.088Z,29.52
2018-12-05T16:24:37.321Z,24.25
2018-12-05T16:27:05.668Z,17.32
2018-12-05T16:29:33.826Z,17.32
2018-12-05T16:32:02.277Z,20.90
2018-12-05T16:34:30.686Z,19.70
2018-12-05T16:36:58.901Z,17.25
2018-12-05T16:39:27.254Z,17.62
2018-12-05T16:41:55.512Z,21.93
2018-12-05T16:44:23.699Z,16.10
2018-12-05T16:46:51.946Z,17.42
2018-12-05T16:49:20.134Z,15.38
2018-12-05T16:51:48.562Z,22.32
2018-12-05T16:54:17.033Z,20.40
2018-12-05T16:56:45.356Z,17.05
2018-12-05T16:59:13.627Z,19.75
2018-12-05T17:01:41.984Z,27.25
2018-12-05T17:04:10.331Z,29.02
2018-12-05T17:06:38.579Z,15.85
2018-12-05T17:09:08.168Z,15.40
2018-12-05T17:11:36.486Z,11.75
2018-12-05T17:14:04.747Z,8.93
2018-12-05T17:16:33.139Z,13.10
2018-12-05T17:19:01.597Z,16.32
2018-12-05T17:21:29.977Z,12.18
2018-12-05T17:23:58.250Z,12.90
2018-12-05T17:26:26.611Z,18.32
2018-12-05T17:28:55.169Z,10.23
2018-12-05T17:31:23.502Z,15.30
2018-12-05T17:33:51.774Z,20.62
2018-12-05T17:36:20.252Z,13.22
2018-12-05T17:38:48.440Z,11.78
2018-12-05T17:41:16.687Z,16.20
2018-12-05T17:43:44.967Z,10.78
2018-12-05T17:46:13.228Z,13.48
2018-12-05T17:48:41.392Z,12.65
2018-12-05T17:51:11.468Z,15.72
2018-12-05T17:53:39.929Z,9.20
2018-12-05T17:56:08.458Z,7.50
2018-12-05T17:58:36.639Z,15.53
2018-12-05T18:01:05.315Z,10.98
2018-12-05T18:03:33.552Z,9.33
2018-12-05T18:06:01.856Z,10.03
2018-12-05T18:08:31.291Z,6.55
2018-12-05T18:10:59.750Z,13.22
2018-12-05T18:13:28.258Z,7.45
2018-12-05T18:15:56.718Z,10.35
2018-12-05T18:18:25.267Z,12.85
2018-12-05T18:30:00.230Z,14.30
2018-12-05T18:32:28.608Z,13.62
2018-12-05T18:34:56.938Z,17.57
2018-12-05T18:37:25.243Z,7.67
2018-12-05T18:39:53.679Z,10.75
2018-12-05T18:42:22.123Z,6.87
2018-12-05T18:44:50.557Z,9.30
2018-12-05T18:47:18.892Z,14.25
2018-12-05T18:49:47.265Z,11.03
2018-12-05T18:52:15.628Z,11.63
2018-12-05T18:54:43.826Z,13.15
2018-12-05T18:57:11.988Z,4.17
2018-12-05T18:59:40.279Z,6.40
2018-12-05T19:02:09.109Z,9.30
2018-12-05T19:04:41.357Z,13.75
2018-12-05T19:07:09.888Z,6.87
2018-12-05T19:09:38.220Z,4.53
2018-12-05T19:12:06.598Z,5.55
2018-12-05T19:14:41.200Z,9.78
2018-12-05T19:17:10.697Z,8.78
2018-12-05T19:19:39.112Z,8.78
2018-12-05T19:22:07.432Z,8.70
2018-12-05T19:24:35.741Z,8.10
2018-12-05T19:27:04.175Z,9.80
2018-12-05T19:29:32.722Z,4.17
2018-12-05T19:32:01.174Z,9.68
2018-12-05T19:34:29.488Z,7.65
2018-12-05T19:36:57.736Z,9.88
2018-12-05T19:39:25.989Z,10.13
2018-12-05T19:41:54.633Z,8.83
2018-12-05T19:44:22.923Z,8.80
2018-12-05T19:46:51.288Z,10.40
2018-12-05T19:49:19.579Z,7.00
2018-12-05T19:51:49.304Z,8.65
2018-12-05T19:54:17.545Z,7.50
2018-12-05T19:56:45.959Z,6.03
2018-12-05T19:59:14.265Z,6.67
2018-12-05T20:01:42.653Z,10.72
2018-12-05T20:04:11.021Z,9.75
2018-12-05T20:06:39.361Z,10.93
2018-12-05T20:09:08.594Z,8.53
2018-12-05T20:11:36.929Z,10.85
2018-12-05T20:14:05.540Z,9.68
2018-12-05T20:16:33.919Z,6.28
2018-12-05T20:19:02.159Z,7.08
2018-12-05T20:21:30.490Z,11.55
2018-12-05T20:23:58.913Z,8.50
2018-12-05T20:26:27.249Z,11.63
2018-12-05T20:28:55.517Z,6.83
2018-12-05T20:31:23.851Z,10.43
2018-12-05T20:33:52.467Z,10.23
2018-12-05T20:36:20.727Z,5.30
2018-12-05T20:38:48.913Z,13.62
2018-12-05T20:41:17.230Z,9.95
2018-12-05T20:43:45.654Z,8.13
2018-12-05T20:46:13.986Z,11.38
2018-12-05T20:48:45.037Z,9.10
2018-12-05T20:51:13.362Z,6.17
2018-12-05T20:53:41.603Z,7.35
2018-12-05T20:56:09.790Z,9.75
2018-12-05T20:58:38.113Z,6.60
2018-12-05T21:01:06.464Z,9.03
2018-12-05T21:03:34.666Z,13.30
2018-12-05T21:06:03.082Z,10.08
2018-12-05T21:08:31.319Z,6.30
2018-12-05T21:10:59.583Z,10.65
2018-12-05T21:13:27.924Z,9.95
2018-12-05T21:15:56.166Z,10.90
2018-12-05T21:18:24.320Z,12.10
2018-12-05T21:20:52.569Z,11.70
2018-12-05T21:23:20.976Z,15.50
2018-12-05T21:25:49.195Z,9.73
2018-12-05T21:28:17.400Z,10.90
2018-12-05T21:30:45.800Z,10.72
2018-12-05T21:33:14.123Z,11.78
2018-12-05T21:35:42.341Z,6.33
2018-12-05T21:38:10.535Z,13.70
2018-12-05T21:40:38.919Z,10.23
2018-12-05T21:43:07.165Z,11.75
2018-12-05T21:45:35.412Z,12.55
2018-12-05T21:48:03.790Z,14.55
2018-12-05T21:50:35.931Z,9.10
2018-12-05T21:53:08.084Z,24.55
2018-12-05T21:55:36.574Z,13.03
2018-12-05T21:58:04.820Z,14.65
2018-12-05T22:00:33.098Z,12.10
2018-12-05T22:03:01.324Z,11.85
2018-12-05T22:05:29.807Z,9.38
2018-12-05T22:07:58.123Z,12.03
2018-12-05T22:10:26.288Z,24.20
2018-12-05T22:12:54.572Z,11.50
2018-12-05T22:15:22.840Z,11.48
2018-12-05T22:17:51.224Z,11.55
2018-12-05T22:20:19.442Z,7.05
2018-12-05T22:22:47.715Z,12.13
2018-12-05T22:25:16.058Z,13.70
2018-12-05T22:27:44.358Z,18.57
2018-12-05T22:30:12.745Z,13.85
2018-12-05T22:32:41.038Z,12.25
2018-12-05T22:35:09.395Z,14.78
2018-12-05T22:37:37.672Z,18.62
2018-12-05T22:40:07.030Z,8.25
2018-12-05T22:42:35.348Z,12.68
2018-12-05T22:45:03.979Z,17.17
2018-12-05T22:47:32.311Z,15.10
2018-12-05T22:50:00.537Z,11.43
2018-12-05T22:52:28.830Z,15.65
2018-12-05T22:54:57.103Z,9.98
2018-12-05T22:57:25.346Z,10.72
2018-12-05T22:59:53.680Z,14.07
2018-12-05T23:02:22.047Z,16.73
2018-12-05T23:04:50.300Z,10.32
2018-12-05T23:07:18.582Z,11.78
2018-12-05T23:09:46.803Z,13.53
2018-12-05T23:12:15.050Z,13.20
2018-12-05T23:14:43.385Z,11.10
2018-12-05T23:17:11.655Z,14.00
2018-12-05T23:19:39.955Z,12.60
2018-12-05T23:22:08.199Z,11.03
2018-12-05T23:24:36.458Z,15.05
2018-12-05T23:27:04.633Z,11.15
2018-12-05T23:29:32.855Z,13.95
2018-12-05T23:32:01.004Z,23.38
2018-12-05T23:34:29.221Z,13.13
2018-12-05T23:36:57.397Z,13.83
2018-12-05T23:39:25.567Z,20.02
2018-12-05T23:41:53.911Z,17.37
2018-12-05T23:44:22.150Z,16.48
2018-12-05T23:46:50.347Z,20.60
2018-12-05T23:49:18.472Z,13.05
2018-12-05T23:51:46.973Z,19.42
2018-12-05T23:54:15.163Z,11.97
2018-12-05T23:56:43.374Z,10.88
2018-12-05T23:59:11.595Z,8.13
